Time;durP1;ratioP1;P1;durP2;ratioP2;P2;SDS_P1;SDS_P2;PMS_P1;PMS_P2;Temp;Humidity;BMP_temperature;BMP_pressure;BME280_temperature;BME280_humidity;BME280_pressure;Samples;Min_cycle;Max_cycle;Signal;HPM_P1;HPM_P2
2023/07/11 00:02:17;;;;;;;7.65;2.15;;;;;;;;;;4992085;28;92790;-81
2023/07/11 00:04:43;;;;;;;8.27;2.03;;;;;;;;;;4979279;28;92622;-83
2023/07/11 00:07:10;;;;;;;6.50;2.30;;;;;;;;;;4991689;28;93587;-82
2023/07/11 00:09:36;;;;;;;8.55;2.10;;;;;;;;;;5002895;28;92216;-82
2023/07/11 00:12:03;;;;;;;7.65;2.10;;;;;;;;;;4991259;28;92985;-81
2023/07/11 00:14:30;;;;;;;6.82;2.33;;;;;;;;;;4990831;28;92419;-82
2023/07/11 00:16:56;;;;;;;5.78;2.30;;;;;;;;;;4984094;28;95134;-82
2023/07/11 00:19:23;;;;;;;7.38;2.25;;;;;;;;;;4983928;28;93098;-82
2023/07/11 00:21:49;;;;;;;5.00;2.00;;;;;;;;;;4990952;28;92571;-82
2023/07/11 00:24:16;;;;;;;5.18;1.95;;;;;;;;;;4991382;28;93416;-82
2023/07/11 00:26:42;;;;;;;6.38;2.10;;;;;;;;;;4989336;28;93398;-82
2023/07/11 00:29:16;;;;;;;5.63;2.13;;;;;;;;;;4990885;28;92620;-83
2023/07/11 00:31:43;;;;;;;5.53;2.25;;;;;;;;;;4980010;28;93339;-82
2023/07/11 00:34:09;;;;;;;7.05;1.90;;;;;;;;;;4972982;28;91881;-82
2023/07/11 00:36:36;;;;;;;7.22;2.00;;;;;;;;;;4991163;28;92881;-81
2023/07/11 00:39:03;;;;;;;8.52;2.22;;;;;;;;;;4999508;28;92431;-83
2023/07/11 00:41:30;;;;;;;4.13;1.85;;;;;;;;;;4989411;28;94889;-82
2023/07/11 00:43:57;;;;;;;6.53;1.85;;;;;;;;;;4990744;28;94282;-81
2023/07/11 00:46:24;;;;;;;5.63;2.15;;;;;;;;;;4991374;28;93625;-82
2023/07/11 00:48:55;;;;;;;7.55;2.22;;;;;;;;;;4989225;28;92399;-81
2023/07/11 00:51:28;;;;;;;5.50;2.00;;;;;;;;;;4991051;28;92684;-82
2023/07/11 00:53:55;;;;;;;6.78;2.10;;;;;;;;;;5004157;28;92494;-83
2023/07/11 00:56:25;;;;;;;5.07;2.00;;;;;;;;;;4990132;28;92934;-82
2023/07/11 00:58:53;;;;;;;4.78;2.00;;;;;;;;;;4992372;28;91703;-82
2023/07/11 01:01:21;;;;;;;6.03;1.80;;;;;;;;;;4991813;28;92944;-82
2023/07/11 01:03:48;;;;;;;4.88;2.00;;;;;;;;;;4993551;28;92767;-83
2023/07/11 01:06:16;;;;;;;5.88;2.20;;;;;;;;;;4989243;28;95378;-82
2023/07/11 01:08:44;;;;;;;11.88;2.50;;;;;;;;;;4990122;28;92526;-82
2023/07/11 01:11:10;;;;;;;10.65;2.28;;;;;;;;;;4990139;28;92714;-82
2023/07/11 01:13:37;;;;;;;8.52;1.98;;;;;;;;;;4989857;28;93286;-82
2023/07/11 01:16:04;;;;;;;4.50;1.88;;;;;;;;;;4991340;28;92944;-82
2023/07/11 01:18:31;;;;;;;4.90;1.98;;;;;;;;;;4988097;28;93084;-81
2023/07/11 01:20:57;;;;;;;6.00;2.08;;;;;;;;;;4988921;28;92942;-82
2023/07/11 01:23:24;;;;;;;7.65;2.03;;;;;;;;;;4990557;28;94581;-82
2023/07/11 01:25:58;;;;;;;4.63;1.98;;;;;;;;;;4990863;28;93261;-83
2023/07/11 01:28:25;;;;;;;;;;;;;;;;;;4981326;28;92839;-83
2023/07/11 01:30:51;;;;;;;6.75;2.20;;;;;;;;;;4988176;28;108547;-83
2023/07/11 01:33:18;;;;;;;7.07;2.15;;;;;;;;;;4990318;28;92689;-83
2023/07/11 01:35:44;;;;;;;8.32;2.08;;;;;;;;;;4992161;28;92581;-83
2023/07/11 01:38:11;;;;;;;8.40;2.20;;;;;;;;;;5000337;28;93717;-82
2023/07/11 01:40:37;;;;;;;7.35;2.00;;;;;;;;;;4971881;28;92621;-82
2023/07/11 01:43:04;;;;;;;4.85;2.00;;;;;;;;;;4982527;28;92617;-82
2023/07/11 01:45:32;;;;;;;5.25;2.20;;;;;;;;;;4987568;28;95258;-83
2023/07/11 01:47:58;;;;;;;4.97;2.00;;;;;;;;;;4991655;28;91652;-82
2023/07/11 01:50:26;;;;;;;5.82;1.90;;;;;;;;;;4989137;28;92565;-82
2023/07/11 01:52:53;;;;;;;4.82;1.90;;;;;;;;;;4996506;28;93147;-83
2023/07/11 01:55:19;;;;;;;7.78;1.88;;;;;;;;;;4995185;28;94879;-82
2023/07/11 01:57:46;;;;;;;4.97;1.70;;;;;;;;;;4991706;28;97987;-82
2023/07/11 02:00:13;;;;;;;6.70;2.00;;;;;;;;;;4988336;28;92517;-83
2023/07/11 02:02:50;;;;;;;6.00;1.90;;;;;;;;;;4986783;28;92656;-82
2023/07/11 02:05:19;;;;;;;7.28;2.03;;;;;;;;;;4988219;28;95327;-82
2023/07/11 02:07:46;;;;;;;5.70;2.00;;;;;;;;;;4990424;28;92440;-82
2023/07/11 02:10:12;;;;;;;4.80;1.98;;;;;;;;;;4998835;28;92746;-82
2023/07/11 02:12:39;;;;;;;5.38;2.15;;;;;;;;;;4990467;28;95125;-82
2023/07/11 02:15:05;;;;;;;6.28;2.05;;;;;;;;;;4996188;28;92424;-82
2023/07/11 02:17:32;;;;;;;6.18;2.10;;;;;;;;;;4992809;28;94415;-82
2023/07/11 02:19:59;;;;;;;5.28;2.00;;;;;;;;;;4987765;28;94876;-83
2023/07/11 02:22:25;;;;;;;4.78;1.73;;;;;;;;;;4977797;28;95256;-84
2023/07/11 02:24:52;;;;;;;8.50;2.30;;;;;;;;;;4987575;28;94472;-81
2023/07/11 02:27:19;;;;;;;6.18;2.15;;;;;;;;;;4993892;28;93158;-81
2023/07/11 02:29:45;;;;;;;8.02;2.20;;;;;;;;;;4998125;28;92337;-81
2023/07/11 02:32:12;;;;;;;6.18;2.20;;;;;;;;;;4996035;28;95944;-81
2023/07/11 02:34:38;;;;;;;4.90;2.03;;;;;;;;;;4997750;28;93256;-80
2023/07/11 02:37:05;;;;;;;4.28;2.08;;;;;;;;;;4998949;28;92846;-81
2023/07/11 02:39:31;;;;;;;5.07;2.13;;;;;;;;;;5010072;28;93082;-83
2023/07/11 02:41:58;;;;;;;7.38;1.77;;;;;;;;;;5018130;28;91990;-82
2023/07/11 02:44:25;;;;;;;5.82;2.00;;;;;;;;;;5007489;28;97160;-82
2023/07/11 02:46:51;;;;;;;6.80;2.20;;;;;;;;;;5013694;28;92823;-82
2023/07/11 02:49:19;;;;;;;5.18;1.80;;;;;;;;;;5006480;28;92831;-83
2023/07/11 02:51:46;;;;;;;4.07;1.90;;;;;;;;;;5006057;28;94281;-83
2023/07/11 02:54:12;;;;;;;5.57;1.98;;;;;;;;;;5014009;28;92491;-82
2023/07/11 02:56:39;;;;;;;6.75;2.10;;;;;;;;;;5002941;28;93091;-82
2023/07/11 02:59:05;;;;;;;6.22;2.20;;;;;;;;;;5002247;28;93264;-82
2023/07/11 03:01:32;;;;;;;6.28;2.25;;;;;;;;;;4997942;28;91652;-82
2023/07/11 03:03:59;;;;;;;5.65;2.30;;;;;;;;;;4996170;28;92783;-82
2023/07/11 03:06:26;;;;;;;6.20;2.30;;;;;;;;;;4989032;28;92379;-82
2023/07/11 03:08:53;;;;;;;4.70;2.05;;;;;;;;;;4998582;28;94849;-81
2023/07/11 03:11:19;;;;;;;7.07;2.30;;;;;;;;;;4993501;28;93396;-82
2023/07/11 03:13:46;;;;;;;5.32;2.20;;;;;;;;;;4990860;28;92503;-82
2023/07/11 03:16:12;;;;;;;5.65;2.13;;;;;;;;;;4991266;28;94878;-82
2023/07/11 03:18:39;;;;;;;6.45;2.20;;;;;;;;;;4993008;28;93788;-82
2023/07/11 03:21:06;;;;;;;6.65;2.28;;;;;;;;;;4997019;28;92479;-81
2023/07/11 03:23:33;;;;;;;5.85;1.80;;;;;;;;;;4994572;28;92788;-82
2023/07/11 03:26:00;;;;;;;4.20;2.00;;;;;;;;;;4997974;28;92212;-80
2023/07/11 03:28:27;;;;;;;4.22;1.90;;;;;;;;;;4979254;28;92404;-79
2023/07/11 03:30:53;;;;;;;5.82;2.03;;;;;;;;;;4992610;28;92963;-80
2023/07/11 03:33:20;;;;;;;5.75;1.80;;;;;;;;;;4991195;28;95290;-81
2023/07/11 03:35:47;;;;;;;4.63;1.80;;;;;;;;;;4982497;28;95197;-80
2023/07/11 03:38:14;;;;;;;4.30;2.00;;;;;;;;;;4991234;28;93578;-81
2023/07/11 03:40:40;;;;;;;7.53;2.28;;;;;;;;;;4995579;28;92964;-80
2023/07/11 03:43:07;;;;;;;6.30;2.10;;;;;;;;;;4992779;28;95677;-81
2023/07/11 03:45:34;;;;;;;6.20;2.00;;;;;;;;;;4996165;28;92974;-82
2023/07/11 03:48:00;;;;;;;6.93;2.15;;;;;;;;;;4985517;28;94266;-82
2023/07/11 03:50:27;;;;;;;6.20;1.95;;;;;;;;;;4989807;28;92593;-82
2023/07/11 03:52:53;;;;;;;5.45;2.10;;;;;;;;;;4991163;28;92453;-82
2023/07/11 03:55:20;;;;;;;5.63;2.20;;;;;;;;;;5001871;28;92894;-83
2023/07/11 03:57:46;;;;;;;5.47;1.80;;;;;;;;;;4989222;28;95351;-84
2023/07/11 04:00:13;;;;;;;3.72;1.85;;;;;;;;;;4991151;28;92409;-83
2023/07/11 04:02:40;;;;;;;;;;;;;;;;;;4987751;28;93466;-84
2023/07/11 04:05:06;;;;;;;6.13;1.95;;;;;;;;;;4994948;28;111686;-83
2023/07/11 04:07:33;;;;;;;4.25;1.92;;;;;;;;;;4997930;28;92616;-83
2023/07/11 04:09:59;;;;;;;4.47;1.90;;;;;;;;;;5008214;28;94227;-83
2023/07/11 04:12:26;;;;;;;3.85;1.80;;;;;;;;;;5004988;28;92920;-82
2023/07/11 04:14:52;;;;;;;6.47;2.00;;;;;;;;;;4991917;28;91978;-83
2023/07/11 04:17:19;;;;;;;5.68;2.20;;;;;;;;;;4990614;28;92966;-82
2023/07/11 04:19:46;;;;;;;9.63;2.20;;;;;;;;;;4991231;28;93420;-82
2023/07/11 04:22:12;;;;;;;5.32;1.92;;;;;;;;;;4989420;28;94779;-84
2023/07/11 04:24:38;;;;;;;5.60;2.08;;;;;;;;;;4992189;28;93634;-83
2023/07/11 04:27:05;;;;;;;3.65;1.80;;;;;;;;;;4999876;28;92488;-83
2023/07/11 04:29:31;;;;;;;5.57;2.08;;;;;;;;;;4994484;28;92949;-83
2023/07/11 04:31:58;;;;;;;4.85;1.90;;;;;;;;;;4988984;28;92518;-82
2023/07/11 04:34:25;;;;;;;5.50;2.00;;;;;;;;;;4990855;28;93145;-82
2023/07/11 04:36:51;;;;;;;4.88;2.30;;;;;;;;;;4988654;28;94052;-82
2023/07/11 04:39:18;;;;;;;5.93;2.17;;;;;;;;;;4988178;28;91924;-82
2023/07/11 04:41:44;;;;;;;6.30;2.17;;;;;;;;;;4990863;28;93166;-84
2023/07/11 04:44:11;;;;;;;4.93;1.90;;;;;;;;;;4988208;28;94346;-81
2023/07/11 04:46:37;;;;;;;5.15;2.00;;;;;;;;;;4989071;28;94794;-84
2023/07/11 04:49:04;;;;;;;4.60;2.00;;;;;;;;;;4990882;28;95368;-82
2023/07/11 04:51:31;;;;;;;7.72;2.30;;;;;;;;;;4993588;28;92946;-82
2023/07/11 04:53:58;;;;;;;4.75;2.05;;;;;;;;;;4989647;28;92708;-84
2023/07/11 04:56:25;;;;;;;5.35;2.30;;;;;;;;;;4999941;28;93371;-83
2023/07/11 04:58:51;;;;;;;6.68;2.33;;;;;;;;;;4976332;28;93284;-82
2023/07/11 05:01:18;;;;;;;4.32;2.03;;;;;;;;;;4990767;28;93330;-82
2023/07/11 05:03:48;;;;;;;5.63;2.38;;;;;;;;;;4990393;28;93031;-81
2023/07/11 05:06:15;;;;;;;12.80;2.75;;;;;;;;;;4990519;28;92782;-83
2023/07/11 05:08:41;;;;;;;8.00;2.70;;;;;;;;;;4990677;28;92788;-82
2023/07/11 05:11:13;;;;;;;7.25;2.70;;;;;;;;;;4995269;28;97032;-82
2023/07/11 05:13:40;;;;;;;6.10;2.65;;;;;;;;;;4993801;28;92458;-81
2023/07/11 05:16:10;;;;;;;6.35;2.97;;;;;;;;;;4990461;28;93445;-82
2023/07/11 05:18:40;;;;;;;6.50;2.70;;;;;;;;;;4990714;28;93084;-82
2023/07/11 05:21:10;;;;;;;;;;;;;;;;;;4991168;28;93249;-82
2023/07/11 05:23:37;;;;;;;6.88;3.17;;;;;;;;;;4990054;28;93172;-82
2023/07/11 05:26:04;;;;;;;7.95;3.53;;;;;;;;;;4998543;28;93757;-83
2023/07/11 05:28:32;;;;;;;8.70;4.35;;;;;;;;;;4980711;28;92668;-83
2023/07/11 05:31:02;;;;;;;6.57;3.03;;;;;;;;;;4989376;28;93653;-81
2023/07/11 05:33:29;;;;;;;8.15;4.20;;;;;;;;;;4988526;28;93107;-81
2023/07/11 05:36:31;;;;;;;6.65;2.97;;;;;;;;;;4991214;28;94695;-81
2023/07/11 05:39:05;;;;;;;7.55;3.38;;;;;;;;;;4993954;28;92896;-81
2023/07/11 05:41:32;;;;;;;7.25;3.65;;;;;;;;;;4976286;28;93055;-81
2023/07/11 05:43:59;;;;;;;9.68;4.38;;;;;;;;;;4988287;28;93459;-82
2023/07/11 05:46:25;;;;;;;11.75;3.50;;;;;;;;;;4989402;28;92566;-82
2023/07/11 05:48:53;;;;;;;12.27;7.18;;;;;;;;;;4989392;28;93343;-82
2023/07/11 05:51:20;;;;;;;9.35;5.45;;;;;;;;;;4989859;28;92906;-82
2023/07/11 05:53:48;;;;;;;7.68;3.75;;;;;;;;;;4990033;28;91766;-82
2023/07/11 05:56:16;;;;;;;12.73;7.25;;;;;;;;;;4982531;28;93339;-84
2023/07/11 05:58:43;;;;;;;11.20;5.65;;;;;;;;;;4988555;28;92900;-83
2023/07/11 06:01:09;;;;;;;;;;;;;;;;;;4988847;28;94880;-84
2023/07/11 06:03:36;;;;;;;9.18;5.13;;;;;;;;;;4991036;28;92857;-83
2023/07/11 06:06:04;;;;;;;8.82;4.93;;;;;;;;;;4995169;28;92561;-81
2023/07/11 06:08:32;;;;;;;12.20;7.07;;;;;;;;;;4996220;28;92859;-86
2023/07/11 06:11:00;;;;;;;12.98;8.05;;;;;;;;;;5006966;28;93139;-84
2023/07/11 06:13:27;;;;;;;13.80;8.77;;;;;;;;;;5000079;28;92425;-84
2023/07/11 06:15:54;;;;;;;;;;;;;;;;;;4998389;28;92733;-83
2023/07/11 06:18:20;;;;;;;12.15;7.13;;;;;;;;;;5001264;28;104960;-83
2023/07/11 06:20:47;;;;;;;12.18;7.15;;;;;;;;;;4991249;28;94811;-84
2023/07/11 06:23:13;;;;;;;11.20;7.18;;;;;;;;;;4990171;28;93447;-82
2023/07/11 06:25:40;;;;;;;11.75;6.93;;;;;;;;;;5000579;28;94953;-84
2023/07/11 06:28:07;;;;;;;12.90;6.45;;;;;;;;;;4992930;28;95259;-82
2023/07/11 06:30:33;;;;;;;10.70;5.70;;;;;;;;;;4991823;28;94070;-83
2023/07/11 06:32:59;;;;;;;11.15;4.72;;;;;;;;;;4993123;28;92685;-82
2023/07/11 06:35:26;;;;;;;10.50;4.28;;;;;;;;;;4992672;28;92995;-80
2023/07/11 06:37:52;;;;;;;10.95;4.10;;;;;;;;;;4992876;28;93620;-79
2023/07/11 06:40:19;;;;;;;10.80;4.50;;;;;;;;;;4992245;28;93006;-80
2023/07/11 06:42:46;;;;;;;10.02;4.30;;;;;;;;;;4992873;28;92340;-80
2023/07/11 06:45:13;;;;;;;10.80;4.10;;;;;;;;;;4988071;28;93159;-82
2023/07/11 06:47:39;;;;;;;9.40;4.40;;;;;;;;;;4989549;28;95412;-82
2023/07/11 06:50:06;;;;;;;8.82;4.13;;;;;;;;;;4988072;28;99467;-82
2023/07/11 06:52:33;;;;;;;10.23;4.38;;;;;;;;;;4983592;28;92934;-81
2023/07/11 06:54:59;;;;;;;8.90;3.70;;;;;;;;;;4999710;28;92829;-81
2023/07/11 06:57:26;;;;;;;10.57;3.70;;;;;;;;;;4992738;28;92414;-81
2023/07/11 06:59:53;;;;;;;10.95;4.05;;;;;;;;;;4991233;28;92818;-80
2023/07/11 07:02:19;;;;;;;8.75;3.90;;;;;;;;;;4994451;28;94115;-81
2023/07/11 07:04:46;;;;;;;9.60;4.00;;;;;;;;;;4987680;28;96476;-82
2023/07/11 07:07:12;;;;;;;9.63;3.70;;;;;;;;;;4987129;28;91844;-82
2023/07/11 07:09:39;;;;;;;8.13;4.05;;;;;;;;;;4995753;28;93769;-81
2023/07/11 07:12:05;;;;;;;9.20;3.72;;;;;;;;;;4992377;28;92493;-81
2023/07/11 07:14:32;;;;;;;9.43;4.20;;;;;;;;;;4989173;28;94876;-81
2023/07/11 07:16:59;;;;;;;9.05;3.13;;;;;;;;;;4990937;28;93523;-80
2023/07/11 07:19:26;;;;;;;8.45;3.58;;;;;;;;;;4987809;28;92530;-80
2023/07/11 07:21:52;;;;;;;9.63;3.80;;;;;;;;;;4991644;28;94125;-81
2023/07/11 07:24:19;;;;;;;8.95;3.67;;;;;;;;;;4995629;28;93304;-79
2023/07/11 07:26:46;;;;;;;9.73;3.78;;;;;;;;;;4994450;28;92725;-81
2023/07/11 07:29:12;;;;;;;7.88;2.95;;;;;;;;;;4991791;28;93402;-80
2023/07/11 07:31:39;;;;;;;8.85;3.50;;;;;;;;;;4992206;28;92051;-81
2023/07/11 07:34:06;;;;;;;8.52;3.10;;;;;;;;;;4987297;28;92957;-82
2023/07/11 07:36:33;;;;;;;8.18;3.10;;;;;;;;;;4992886;28;93317;-81
2023/07/11 07:38:59;;;;;;;8.00;3.33;;;;;;;;;;4988864;28;94951;-81
2023/07/11 07:41:26;;;;;;;9.38;3.30;;;;;;;;;;4990781;28;95343;-80
2023/07/11 07:43:53;;;;;;;;;;;;;;;;;;4992665;28;93028;-81
2023/07/11 07:46:19;;;;;;;8.45;2.70;;;;;;;;;;4996949;28;92432;-82
2023/07/11 07:48:46;;;;;;;8.27;3.35;;;;;;;;;;4980722;28;93522;-82
2023/07/11 07:51:14;;;;;;;8.05;3.08;;;;;;;;;;4990038;28;92576;-82
2023/07/11 07:53:41;;;;;;;8.48;2.90;;;;;;;;;;4976725;28;95999;-83
2023/07/11 07:56:12;;;;;;;7.53;3.08;;;;;;;;;;4993613;28;92217;-82
2023/07/11 07:58:39;;;;;;;8.40;3.10;;;;;;;;;;4989344;28;92622;-82
2023/07/11 08:01:10;;;;;;;8.07;3.10;;;;;;;;;;4990306;28;93726;-82
2023/07/11 08:03:36;;;;;;;8.32;2.90;;;;;;;;;;4989048;28;95312;-82
2023/07/11 08:06:03;;;;;;;9.75;3.13;;;;;;;;;;4993113;28;93213;-82
2023/07/11 08:08:43;;;;;;;8.63;3.00;;;;;;;;;;4990856;28;93279;-83
2023/07/11 08:11:10;;;;;;;8.13;3.15;;;;;;;;;;4995176;28;93457;-83
2023/07/11 08:13:36;;;;;;;10.07;3.00;;;;;;;;;;4990486;28;92843;-82
2023/07/11 08:16:23;;;;;;;9.95;3.15;;;;;;;;;;4988144;28;93097;-83
2023/07/11 08:18:59;;;;;;;9.50;2.58;;;;;;;;;;4984940;28;92772;-82
2023/07/11 08:21:26;;;;;;;9.25;2.80;;;;;;;;;;4991181;28;93018;-83
2023/07/11 08:23:52;;;;;;;9.00;2.70;;;;;;;;;;4991437;28;94837;-82
2023/07/11 08:26:20;;;;;;;6.70;2.50;;;;;;;;;;4994260;28;92406;-82
2023/07/11 08:28:47;;;;;;;8.73;2.63;;;;;;;;;;4990792;28;94806;-82
2023/07/11 08:31:14;;;;;;;9.85;2.80;;;;;;;;;;4971790;28;92631;-80
2023/07/11 08:33:40;;;;;;;8.77;2.10;;;;;;;;;;4981520;28;92881;-81
2023/07/11 08:36:07;;;;;;;8.30;2.60;;;;;;;;;;4988012;28;93051;-81
2023/07/11 08:38:33;;;;;;;6.40;2.38;;;;;;;;;;4977709;28;92590;-81
2023/07/11 08:41:29;;;;;;;6.63;2.50;;;;;;;;;;4986187;28;92809;-80
2023/07/11 08:43:58;;;;;;;8.05;2.38;;;;;;;;;;4968991;28;92870;-80
2023/07/11 08:46:26;;;;;;;6.60;2.28;;;;;;;;;;4989448;28;91957;-81
2023/07/11 08:48:57;;;;;;;7.30;2.55;;;;;;;;;;4978415;28;95389;-80
2023/07/11 08:51:23;;;;;;;7.28;2.63;;;;;;;;;;4982304;28;93289;-82
2023/07/11 08:53:52;;;;;;;8.02;2.60;;;;;;;;;;4975298;28;94840;-81
2023/07/11 08:56:37;;;;;;;7.40;2.30;;;;;;;;;;4980554;28;93709;-83
2023/07/11 08:59:13;;;;;;;9.07;2.50;;;;;;;;;;4968642;28;92596;-83
2023/07/11 09:01:45;;;;;;;7.15;2.50;;;;;;;;;;4973486;28;93137;-84
2023/07/11 09:04:14;;;;;;;7.13;2.38;;;;;;;;;;4983522;28;92965;-78
2023/07/11 09:06:44;;;;;;;7.47;2.20;;;;;;;;;;4988907;28;92730;-77
2023/07/11 09:09:10;;;;;;;14.82;2.80;;;;;;;;;;4988389;28;92716;-79
2023/07/11 09:11:45;;;;;;;5.60;2.03;;;;;;;;;;4984248;28;92654;-82
2023/07/11 09:14:19;;;;;;;7.20;2.35;;;;;;;;;;4970314;28;92512;-82
2023/07/11 09:16:53;;;;;;;8.98;2.53;;;;;;;;;;4985901;28;92987;-79
2023/07/11 09:19:40;;;;;;;7.40;2.40;;;;;;;;;;4987231;28;94918;-79
2023/07/11 09:22:15;;;;;;;6.07;2.38;;;;;;;;;;4989384;28;95160;-82
2023/07/11 09:24:52;;;;;;;6.78;2.30;;;;;;;;;;4987528;28;95205;-82
2023/07/11 09:27:26;;;;;;;7.68;2.40;;;;;;;;;;4981192;28;92517;-83
2023/07/11 09:29:54;;;;;;;5.32;2.30;;;;;;;;;;4999810;28;92457;-82
2023/07/11 09:32:20;;;;;;;6.97;2.10;;;;;;;;;;4976401;28;93030;-82
2023/07/11 09:34:47;;;;;;;;;;;;;;;;;;4976994;28;92613;-81
2023/07/11 09:37:32;;;;;;;6.40;2.08;;;;;;;;;;4984243;28;101851;-82
2023/07/11 09:39:59;;;;;;;;;;;;;;;;;;4986072;28;92584;-81
2023/07/11 09:42:28;;;;;;;7.18;2.17;;;;;;;;;;4972763;28;114213;-82
2023/07/11 09:44:59;;;;;;;7.55;2.17;;;;;;;;;;4987658;28;95392;-82
2023/07/11 09:47:30;;;;;;;6.32;2.20;;;;;;;;;;4990085;28;92434;-82
2023/07/11 09:49:57;;;;;;;5.75;2.30;;;;;;;;;;4990233;28;93266;-82
2023/07/11 09:52:26;;;;;;;6.95;2.10;;;;;;;;;;4986533;28;93151;-83
2023/07/11 09:54:53;;;;;;;5.22;2.00;;;;;;;;;;4976199;28;92448;-82
2023/07/11 09:57:33;;;;;;;7.97;2.30;;;;;;;;;;4977819;28;92917;-83
2023/07/11 10:00:01;;;;;;;7.72;2.25;;;;;;;;;;4971453;28;92850;-82
2023/07/11 10:02:31;;;;;;;6.65;2.40;;;;;;;;;;4978139;28;92928;-82
2023/07/11 10:04:58;;;;;;;4.82;2.15;;;;;;;;;;4970638;28;93275;-82
2023/07/11 10:07:28;;;;;;;6.70;2.30;;;;;;;;;;4974761;28;92652;-81
2023/07/11 10:09:59;;;;;;;6.07;2.40;;;;;;;;;;4979497;28;94907;-82
2023/07/11 10:12:25;;;;;;;6.60;2.30;;;;;;;;;;4989352;28;93588;-81
2023/07/11 10:15:02;;;;;;;7.00;2.35;;;;;;;;;;4976911;28;93219;-82
2023/07/11 10:17:33;;;;;;;6.32;2.53;;;;;;;;;;4971942;28;92867;-83
2023/07/11 10:20:02;;;;;;;9.82;2.45;;;;;;;;;;4975358;28;94366;-82
2023/07/11 10:22:47;;;;;;;7.07;2.30;;;;;;;;;;4995808;28;92844;-82
2023/07/11 10:25:16;;;;;;;6.45;2.33;;;;;;;;;;4974469;28;95565;-82
2023/07/11 10:27:46;;;;;;;7.65;2.50;;;;;;;;;;4975962;28;92027;-81
2023/07/11 10:30:18;;;;;;;6.70;2.20;;;;;;;;;;4975223;28;92684;-81
2023/07/11 10:32:50;;;;;;;6.15;2.15;;;;;;;;;;4987462;28;93252;-81
2023/07/11 10:35:19;;;;;;;6.72;2.40;;;;;;;;;;4984632;28;95376;-82
2023/07/11 10:37:49;;;;;;;6.13;2.22;;;;;;;;;;4985486;28;98200;-80
2023/07/11 10:40:27;;;;;;;8.23;2.40;;;;;;;;;;4986124;28;93613;-81
2023/07/11 10:43:23;;;;;;;6.57;2.15;;;;;;;;;;4983400;28;92391;-81
2023/07/11 10:45:51;;;;;;;5.78;2.35;;;;;;;;;;4985566;28;92924;-81
2023/07/11 10:48:25;;;;;;;5.65;2.15;;;;;;;;;;4977246;28;92898;-81
2023/07/11 10:50:55;;;;;;;5.75;2.13;;;;;;;;;;4979464;28;92892;-81
2023/07/11 10:53:24;;;;;;;6.57;2.28;;;;;;;;;;5005225;28;93432;-80
2023/07/11 10:55:56;;;;;;;7.60;2.47;;;;;;;;;;5007154;28;92389;-81
2023/07/11 10:58:23;;;;;;;4.53;2.15;;;;;;;;;;4991329;28;92608;-80
2023/07/11 11:00:50;;;;;;;;;;;;;;;;;;4999022;28;94787;-81
2023/07/11 11:03:37;;;;;;;7.38;2.30;;;;;;;;;;5008729;28;97231;-82
2023/07/11 11:06:04;;;;;;;7.10;2.50;;;;;;;;;;5005966;28;92075;-83
2023/07/11 11:08:34;;;;;;;6.90;2.30;;;;;;;;;;5000551;28;92330;-83
2023/07/11 11:11:21;;;;;;;6.30;2.17;;;;;;;;;;4997812;28;95024;-83
2023/07/11 11:13:54;;;;;;;5.68;2.40;;;;;;;;;;5000097;28;92152;-82
2023/07/11 11:16:28;;;;;;;6.70;2.33;;;;;;;;;;4996160;28;92362;-83
2023/07/11 11:19:06;;;;;;;7.18;2.33;;;;;;;;;;4994046;28;91927;-82
2023/07/11 11:21:47;;;;;;;5.38;2.10;;;;;;;;;;4995552;28;92303;-82
2023/07/11 11:24:27;;;;;;;6.55;2.33;;;;;;;;;;4972419;28;92551;-82
2023/07/11 11:27:04;;;;;;;5.53;2.33;;;;;;;;;;4970501;28;95993;-82
2023/07/11 11:29:36;;;;;;;6.30;2.40;;;;;;;;;;4989429;28;94252;-81
2023/07/11 11:32:14;;;;;;;5.78;2.20;;;;;;;;;;4986800;28;94106;-81
2023/07/11 11:34:50;;;;;;;6.38;2.30;;;;;;;;;;4990412;28;93927;-81
2023/07/11 11:37:45;;;;;;;5.45;2.25;;;;;;;;;;4990813;28;93059;-83
2023/07/11 11:40:18;;;;;;;10.98;2.50;;;;;;;;;;4986465;28;93416;-82
2023/07/11 11:42:46;;;;;;;6.95;2.28;;;;;;;;;;4981914;28;94726;-81
2023/07/11 11:45:17;;;;;;;7.95;2.28;;;;;;;;;;4992355;28;92380;-81
2023/07/11 11:47:48;;;;;;;18.23;2.50;;;;;;;;;;4992387;28;93085;-81
2023/07/11 11:50:18;;;;;;;9.35;2.42;;;;;;;;;;4989974;28;93192;-82
2023/07/11 11:53:15;;;;;;;8.70;2.40;;;;;;;;;;4986864;28;94830;-82
2023/07/11 11:56:17;;;;;;;7.10;2.20;;;;;;;;;;4989869;28;93107;-83
2023/07/11 11:58:52;;;;;;;6.43;2.20;;;;;;;;;;4970816;28;92551;-82
2023/07/11 12:01:41;;;;;;;5.65;2.30;;;;;;;;;;4977432;28;92932;-82
2023/07/11 12:04:26;;;;;;;5.68;2.20;;;;;;;;;;4989625;28;93219;-81
2023/07/11 12:07:06;;;;;;;5.53;2.30;;;;;;;;;;5000790;28;92992;-81
2023/07/11 12:09:33;;;;;;;5.82;2.47;;;;;;;;;;4990012;28;92941;-81
2023/07/11 12:12:07;;;;;;;6.18;2.10;;;;;;;;;;4989907;28;92199;-82
2023/07/11 12:14:56;;;;;;;7.22;2.50;;;;;;;;;;4992438;28;92889;-81
2023/07/11 12:17:31;;;;;;;5.47;2.15;;;;;;;;;;4988962;28;93119;-81
2023/07/11 12:20:01;;;;;;;6.00;2.10;;;;;;;;;;4989397;28;95311;-82
2023/07/11 12:22:51;;;;;;;6.10;2.22;;;;;;;;;;5000809;28;95272;-82
2023/07/11 12:25:17;;;;;;;4.22;1.98;;;;;;;;;;4978302;28;93778;-82
2023/07/11 12:27:48;;;;;;;5.18;2.17;;;;;;;;;;4990994;28;92946;-82
2023/07/11 12:30:15;;;;;;;6.13;2.30;;;;;;;;;;4978209;28;92556;-82
2023/07/11 12:32:50;;;;;;;6.50;2.35;;;;;;;;;;4989074;28;93454;-82
2023/07/11 12:35:22;;;;;;;6.38;2.33;;;;;;;;;;4991612;28;92828;-82
2023/07/11 12:38:01;;;;;;;5.72;2.35;;;;;;;;;;5003721;28;92906;-82
2023/07/11 12:40:28;;;;;;;;;;;;;;;;;;4988004;28;92398;-82
2023/07/11 12:42:57;;;;;;;7.95;2.75;;;;;;;;;;4982436;28;97842;-78
2023/07/11 12:45:25;;;;;;;9.45;3.45;;;;;;;;;;4986357;28;95376;-76
2023/07/11 12:48:18;;;;;;;9.43;3.22;;;;;;;;;;4988055;28;92522;-78
2023/07/11 12:50:45;;;;;;;8.32;3.03;;;;;;;;;;4980887;28;93093;-79
2023/07/11 12:53:12;;;;;;;9.55;3.40;;;;;;;;;;4998105;28;94189;-79
2023/07/11 12:55:42;;;;;;;8.25;3.20;;;;;;;;;;4986149;28;92435;-77
2023/07/11 12:58:23;;;;;;;7.95;3.25;;;;;;;;;;4981342;28;92763;-81
2023/07/11 13:00:51;;;;;;;10.65;3.00;;;;;;;;;;4992940;28;93179;-79
2023/07/11 13:03:22;;;;;;;10.10;3.30;;;;;;;;;;4990610;28;93393;-80
2023/07/11 13:05:50;;;;;;;8.75;3.35;;;;;;;;;;4974059;28;96102;-79
2023/07/11 13:08:17;;;;;;;7.80;2.90;;;;;;;;;;4997126;28;92417;-81
2023/07/11 13:10:55;;;;;;;8.20;2.83;;;;;;;;;;4991206;28;94894;-81
2023/07/11 13:13:24;;;;;;;9.40;3.22;;;;;;;;;;4990381;28;92887;-81
2023/07/11 13:15:50;;;;;;;10.10;2.63;;;;;;;;;;4991253;28;93153;-82
2023/07/11 13:18:29;;;;;;;7.70;2.58;;;;;;;;;;4990827;28;93037;-82
2023/07/11 13:20:57;;;;;;;8.48;2.70;;;;;;;;;;4988053;28;95866;-81
2023/07/11 13:23:25;;;;;;;7.63;2.53;;;;;;;;;;4998096;28;92504;-81
2023/07/11 13:25:52;;;;;;;7.30;2.47;;;;;;;;;;4975704;28;95528;-81
2023/07/11 13:28:21;;;;;;;7.57;2.58;;;;;;;;;;4990314;28;91730;-81
2023/07/11 13:31:01;;;;;;;7.53;2.80;;;;;;;;;;4990531;28;92535;-82
2023/07/11 13:33:29;;;;;;;7.18;2.40;;;;;;;;;;4990342;28;93616;-82
2023/07/11 13:36:16;;;;;;;5.47;2.42;;;;;;;;;;4989193;28;95276;-82
2023/07/11 13:38:49;;;;;;;6.88;2.60;;;;;;;;;;4989871;28;95329;-82
2023/07/11 13:41:21;;;;;;;8.10;3.10;;;;;;;;;;4998558;28;95970;-82
2023/07/11 13:43:51;;;;;;;7.15;2.88;;;;;;;;;;4989531;28;92624;-82
2023/07/11 13:46:18;;;;;;;5.53;2.42;;;;;;;;;;4992957;28;92866;-81
2023/07/11 13:48:46;;;;;;;6.43;2.85;;;;;;;;;;4988639;28;92703;-82
2023/07/11 13:51:16;;;;;;;6.43;2.50;;;;;;;;;;4991471;28;93017;-83
2023/07/11 13:53:45;;;;;;;6.55;2.65;;;;;;;;;;4997807;28;92687;-80
2023/07/11 13:56:11;;;;;;;7.03;2.92;;;;;;;;;;4991565;28;92484;-82
2023/07/11 13:58:38;;;;;;;6.22;2.63;;;;;;;;;;4989879;28;92864;-82
2023/07/11 14:01:09;;;;;;;7.30;2.97;;;;;;;;;;4988091;28;96576;-82
2023/07/11 14:03:39;;;;;;;7.97;2.78;;;;;;;;;;4976234;28;92441;-82
2023/07/11 14:06:11;;;;;;;7.45;2.63;;;;;;;;;;4989651;28;92609;-82
2023/07/11 14:08:37;;;;;;;7.57;3.00;;;;;;;;;;4984866;28;93257;-82
2023/07/11 14:11:04;;;;;;;6.07;2.88;;;;;;;;;;4987240;28;94450;-82
2023/07/11 14:13:31;;;;;;;9.57;3.20;;;;;;;;;;4988469;28;93086;-82
2023/07/11 14:15:58;;;;;;;7.53;3.10;;;;;;;;;;4988771;28;92670;-82
2023/07/11 14:18:24;;;;;;;8.73;3.10;;;;;;;;;;4989805;28;92821;-82
2023/07/11 14:20:51;;;;;;;6.65;2.85;;;;;;;;;;4993396;28;93082;-82
2023/07/11 14:23:22;;;;;;;8.02;2.90;;;;;;;;;;4993815;28;92415;-82
2023/07/11 14:25:49;;;;;;;6.10;2.60;;;;;;;;;;4996114;28;94766;-82
2023/07/11 14:28:15;;;;;;;6.72;2.90;;;;;;;;;;4994302;28;93220;-82
2023/07/11 14:30:43;;;;;;;7.43;2.70;;;;;;;;;;4992226;28;92951;-82
2023/07/11 14:33:10;;;;;;;7.20;2.92;;;;;;;;;;4990981;28;95836;-84
2023/07/11 14:35:37;;;;;;;7.50;2.63;;;;;;;;;;4980782;28;92529;-83
2023/07/11 14:38:09;;;;;;;7.25;2.95;;;;;;;;;;4973544;28;92379;-82
2023/07/11 14:40:35;;;;;;;7.05;2.90;;;;;;;;;;4986302;28;94559;-83
2023/07/11 14:43:04;;;;;;;7.25;2.78;;;;;;;;;;4990783;28;91700;-83
2023/07/11 14:45:31;;;;;;;7.30;2.88;;;;;;;;;;4993505;28;92411;-82
2023/07/11 14:47:57;;;;;;;6.00;2.78;;;;;;;;;;4990018;28;93112;-82
2023/07/11 14:50:28;;;;;;;8.02;2.88;;;;;;;;;;4986052;28;94889;-83
2023/07/11 14:52:55;;;;;;;8.20;2.80;;;;;;;;;;4997313;28;93986;-82
2023/07/11 14:55:22;;;;;;;7.50;2.65;;;;;;;;;;4986963;28;92525;-82
2023/07/11 14:57:52;;;;;;;6.85;2.90;;;;;;;;;;4993791;28;92890;-82
2023/07/11 15:00:23;;;;;;;7.70;3.05;;;;;;;;;;4994176;28;93260;-81